Time;durP1;ratioP1;P1;durP2;ratioP2;P2;SDS_P1;SDS_P2;PMS_P1;PMS_P2;Temp;Humidity;BMP_temperature;BMP_pressure;BME280_temperature;BME280_humidity;BME280_pressure;Samples;Min_cycle;Max_cycle;Signal;HPM_P1;HPM_P2
2022/09/13 11:36:14;;;;;;;;;;;;;;;25.19;41.13;99340.50;1083862;54;21161;-80
2022/09/13 20:21:33;;;;;;;;;;;;;;;23.06;54.53;99025.13;1086729;39;21212;-80
2022/09/13 20:22:37;;;;;;;;;;;;;;;23.03;54.61;99029.19;1087327;54;19947;-80
2022/09/13 20:23:42;;;;;;;;;;;;;;;23.05;54.58;99028.94;1087881;54;19942;-85
2022/09/13 20:24:44;;;;;;;;;;;;;;;23.06;54.88;99016.97;1090702;39;20491;-80
2022/09/13 20:25:47;;;;;;;;;;;;;;;23.06;54.90;99025.13;1088087;39;20360;-80
2022/09/13 20:26:50;;;;;;;;;;;;;;;23.04;54.89;99033.56;1087548;54;19943;-79
2022/09/13 20:27:54;;;;;;;;;;;;;;;23.03;54.61;99029.19;1087835;54;19982;-83
2022/09/13 20:28:56;;;;;;;;;;;;;;;23.01;54.63;99036.78;1087872;54;19934;-82
2022/09/13 20:30:01;;;;;;;;;;;;;;;23.02;54.70;99037.63;1087647;54;19950;-80
2022/09/13 20:31:03;;;;;;;;;;;;;;;23.03;54.59;99040.09;1087679;54;19981;-82
2022/09/13 20:32:10;;;;;;;;;;;;;;;23.00;54.64;99037.06;1087812;54;19942;-81
2022/09/13 20:33:11;;;;;;;;;;;;;;;23.03;54.63;99033.84;1087854;54;19958;-82
2022/09/13 20:34:16;;;;;;;;;;;;;;;23.02;55.03;99034.91;1088268;46;19942;-81
2022/09/13 20:35:17;;;;;;;;;;;;;;;22.97;55.26;99032.94;1087488;54;19943;-80
2022/09/13 20:36:21;;;;;;;;;;;;;;;22.96;54.91;99036.75;1087679;54;19957;-82
2022/09/13 20:37:32;;;;;;;;;;;;;;;22.85;55.43;99033.06;1087839;54;19942;-81
2022/09/13 20:38:39;;;;;;;;;;;;;;;22.83;55.14;99039.81;1087748;54;19942;-83
2022/09/13 20:39:40;;;;;;;;;;;;;;;22.89;55.13;99034.19;1087784;39;20301;-84
2022/09/13 20:40:44;;;;;;;;;;;;;;;22.90;55.01;99038.56;1086744;54;19950;-81
2022/09/13 20:41:46;;;;;;;;;;;;;;;22.90;54.69;99038.56;1086675;54;19965;-81
2022/09/13 20:42:50;;;;;;;;;;;;;;;22.93;54.91;99039.94;1086976;54;19973;-79
2022/09/13 20:43:51;;;;;;;;;;;;;;;22.93;54.58;99039.94;1086784;54;19951;-81
2022/09/13 20:44:54;;;;;;;;;;;;;;;22.95;54.36;99040.53;1086796;54;20548;-79
2022/09/13 20:45:56;;;;;;;;;;;;;;;22.96;54.72;99038.63;1086659;54;19942;-78
2022/09/13 20:47:00;;;;;;;;;;;;;;;22.97;54.29;99041.13;1087172;54;19954;-82
2022/09/13 20:48:02;;;;;;;;;;;;;;;22.99;54.57;99043.56;1087388;54;19951;-79
2022/09/13 20:49:07;;;;;;;;;;;;;;;22.97;54.31;99040.28;1087480;54;19979;-81
2022/09/13 20:50:11;;;;;;;;;;;;;;;22.89;54.51;99045.09;1087530;54;20469;-80
2022/09/13 20:51:16;;;;;;;;;;;;;;;22.89;54.50;99045.09;1087110;54;19950;-79
2022/09/13 20:52:19;;;;;;;;;;;;;;;22.84;54.63;99033.28;1087295;54;19947;-79
2022/09/13 20:53:21;;;;;;;;;;;;;;;22.82;54.57;99039.00;1087913;39;20467;-82
2022/09/13 20:54:27;;;;;;;;;;;;;;;22.82;55.04;99040.88;1090615;39;20490;-82
2022/09/13 20:55:28;;;;;;;;;;;;;;;22.77;54.78;99038.91;1086985;54;19966;-79
2022/09/13 20:56:33;;;;;;;;;;;;;;;22.76;54.69;99034.56;1087016;54;19950;-76
2022/09/13 20:57:34;;;;;;;;;;;;;;;22.76;55.09;99040.00;1086921;54;19962;-80
2022/09/13 20:58:38;;;;;;;;;;;;;;;22.74;54.73;99033.97;1087040;54;19942;-81
2022/09/13 20:59:39;;;;;;;;;;;;;;;22.72;54.93;99027.94;1086792;54;19953;-78
2022/09/13 21:00:43;;;;;;;;;;;;;;;22.67;55.07;99019.72;1086402;54;19958;-80
2022/09/13 21:01:47;;;;;;;;;;;;;;;22.63;55.49;99019.34;1086868;54;19949;-81
2022/09/13 21:02:48;;;;;;;;;;;;;;;22.57;55.84;99018.47;1087110;54;19958;-82
2022/09/13 21:03:53;;;;;;;;;;;;;;;22.56;55.63;99019.56;1087496;54;19946;-78
2022/09/13 21:04:54;;;;;;;;;;;;;;;22.58;55.20;99016.56;1087672;54;19946;-78
2022/09/13 21:05:58;;;;;;;;;;;;;;;22.58;55.25;99011.13;1087649;54;19970;-78
2022/09/13 21:09:37;;;;;;;;;;;;;;;22.52;55.58;99018.38;1087444;54;19958;-81
2022/09/13 21:10:38;;;;;;;;;;;;;;;22.54;55.44;99016.25;1087582;54;19991;-80
2022/09/13 21:11:42;;;;;;;;;;;;;;;22.52;55.58;99012.94;1087685;54;19943;-78
2022/09/13 21:12:43;;;;;;;;;;;;;;;22.52;55.52;99018.38;1087687;54;19953;-76
2022/09/13 21:13:48;;;;;;;;;;;;;;;22.52;55.77;99017.56;1087741;54;19994;-80
2022/09/13 21:14:50;;;;;;;;;;;;;;;22.50;55.71;99014.28;1087708;54;19934;-78
2022/09/13 21:15:54;;;;;;;;;;;;;;;22.49;55.62;99020.78;1087663;54;19942;-79
2022/09/13 21:16:55;;;;;;;;;;;;;;;22.48;55.58;99019.13;1087819;46;19942;-77
2022/09/13 21:17:59;;;;;;;;;;;;;;;22.46;55.61;99021.28;1087519;54;19943;-82
2022/09/13 21:19:02;;;;;;;;;;;;;;;22.46;55.83;99019.41;1086745;54;20714;-81
2022/09/13 21:20:06;;;;;;;;;;;;;;;22.46;55.63;99027.56;1087519;54;19947;-79
2022/09/13 21:21:08;;;;;;;;;;;;;;;22.48;55.86;99021.84;1086960;54;19966;-78
2022/09/13 21:22:11;;;;;;;;;;;;;;;22.48;55.64;99025.41;1086771;54;19981;-79
2022/09/13 21:23:12;;;;;;;;;;;;;;;22.47;55.97;99026.50;1087090;54;19958;-77
2022/09/13 21:24:16;;;;;;;;;;;;;;;22.46;56.26;99018.56;1086908;54;19970;-80
2022/09/13 21:25:21;;;;;;;;;;;;;;;22.45;55.85;99012.28;1089761;39;20490;-78
2022/09/13 21:26:26;;;;;;;;;;;;;;;22.46;55.83;99007.66;1087289;54;19946;-79
2022/09/13 21:27:27;;;;;;;;;;;;;;;22.44;56.24;99010.63;1087659;54;19942;-79
2022/09/13 21:28:31;;;;;;;;;;;;;;;22.44;56.20;99002.47;1087629;54;19942;-78
2022/09/13 21:29:33;;;;;;;;;;;;;;;22.44;56.07;99002.47;1087631;54;19949;-80
2022/09/13 21:30:37;;;;;;;;;;;;;;;22.45;55.98;99006.84;1088483;46;19949;-79
2022/09/13 21:31:38;;;;;;;;;;;;;;;22.47;55.84;98995.69;1087075;54;19950;-79
2022/09/13 21:32:42;;;;;;;;;;;;;;;22.46;55.98;98997.59;1087256;54;19957;-78
2022/09/13 21:33:44;;;;;;;;;;;;;;;22.46;55.99;98999.50;1087819;39;20475;-79
2022/09/13 21:34:47;;;;;;;;;;;;;;;22.45;56.07;99004.13;1087238;54;19983;-80
2022/09/13 21:35:48;;;;;;;;;;;;;;;22.46;55.99;99005.78;1087024;54;19938;-80
2022/09/13 21:36:53;;;;;;;;;;;;;;;22.47;56.11;99012.88;1087845;46;19943;-80
2022/09/13 21:37:54;;;;;;;;;;;;;;;22.47;56.03;99006.59;1088956;39;20353;-79
2022/09/13 21:38:58;;;;;;;;;;;;;;;22.48;55.85;99009.09;1087367;54;19957;-81
2022/09/13 21:40:02;;;;;;;;;;;;;;;22.48;55.97;99009.09;1087269;54;19999;-78
2022/09/13 21:41:06;;;;;;;;;;;;;;;22.50;56.04;99006.09;1087450;54;19943;-79
2022/09/13 21:42:11;;;;;;;;;;;;;;;22.48;56.19;99011.81;1087597;54;19966;-80
2022/09/13 21:43:13;;;;;;;;;;;;;;;22.39;57.25;99007.78;1086629;54;19942;-76
2022/09/13 21:44:17;;;;;;;;;;;;;;;22.33;57.12;99008.78;1086530;54;19953;-80
2022/09/13 21:45:18;;;;;;;;;;;;;;;22.25;57.88;99007.28;1086505;54;19970;-79
2022/09/13 21:46:23;;;;;;;;;;;;;;;22.19;58.19;98998.25;1086629;54;19950;-77
2022/09/13 21:47:26;;;;;;;;;;;;;;;22.10;58.62;99016.06;1086696;54;19950;-78
2022/09/13 21:48:28;;;;;;;;;;;;;;;22.04;59.13;99000.69;1086901;54;19950;-80
2022/09/13 21:49:32;;;;;;;;;;;;;;;22.03;58.53;98999.03;1086605;54;19946;-79
2022/09/13 21:50:33;;;;;;;;;;;;;;;22.03;58.77;98999.88;1086527;54;19950;-78
2022/09/13 21:51:38;;;;;;;;;;;;;;;22.03;58.65;98994.44;1086492;54;19974;-79
2022/09/13 21:52:40;;;;;;;;;;;;;;;22.04;58.30;98995.25;1086754;54;19951;-80
2022/09/13 21:53:44;;;;;;;;;;;;;;;21.97;58.94;98995.41;1086757;54;19957;-78
2022/09/13 21:54:45;;;;;;;;;;;;;;;21.96;58.55;98994.59;1090388;39;20448;-80
2022/09/13 21:55:50;;;;;;;;;;;;;;;21.99;58.70;98995.97;1087186;54;20014;-78
2022/09/13 21:56:56;;;;;;;;;;;;;;;22.01;58.27;98991.13;1087652;54;19949;-80
2022/09/13 21:57:58;;;;;;;;;;;;;;;22.04;58.06;98995.25;1087607;54;19943;-78
2022/09/13 21:59:02;;;;;;;;;;;;;;;22.00;58.02;98994.91;1087609;54;19995;-81
2022/09/13 22:00:08;;;;;;;;;;;;;;;22.00;58.40;99003.09;1086918;54;20039;-81
2022/09/13 22:01:10;;;;;;;;;;;;;;;22.02;58.47;99002.81;1086941;54;19969;-81
2022/09/13 22:02:14;;;;;;;;;;;;;;;22.03;58.15;98999.03;1087173;54;19950;-82
2022/09/13 22:03:15;;;;;;;;;;;;;;;22.01;58.24;99001.19;1088573;46;19950;-78
2022/09/13 22:04:21;;;;;;;;;;;;;;;22.04;58.26;99001.53;1086915;54;19942;-77
2022/09/13 22:05:22;;;;;;;;;;;;;;;22.05;58.18;99003.19;1086493;54;20547;-79
2022/09/13 22:06:26;;;;;;;;;;;;;;;22.03;58.57;99005.31;1086952;54;19947;-78
2022/09/13 22:07:29;;;;;;;;;;;;;;;22.04;57.92;99006.97;1086786;54;19950;-78
2022/09/13 22:08:31;;;;;;;;;;;;;;;22.04;58.41;99006.13;1087581;54;19939;-79
2022/09/13 22:09:35;;;;;;;;;;;;;;;22.06;58.03;99012.16;1087151;54;19949;-80
2022/09/13 22:10:36;;;;;;;;;;;;;;;22.07;58.34;99016.53;1086784;54;19947;-80
2022/09/13 22:11:42;;;;;;;;;;;;;;;22.08;58.07;99012.75;1086641;54;20272;-78
2022/09/13 22:12:46;;;;;;;;;;;;;;;22.03;58.71;99005.31;1086572;54;19930;-80
2022/09/13 22:13:49;;;;;;;;;;;;;;;22.03;58.14;98993.59;1087012;46;19953;-79
2022/09/13 22:14:51;;;;;;;;;;;;;;;22.02;58.32;99002.81;1086698;54;19951;-80
2022/09/13 22:15:54;;;;;;;;;;;;;;;22.04;58.48;98995.25;1086643;54;19970;-80
2022/09/13 22:16:55;;;;;;;;;;;;;;;22.03;58.25;99001.75;1086857;54;19947;-79
2022/09/13 22:17:59;;;;;;;;;;;;;;;22.04;58.12;99006.13;1086518;54;19947;-78
2022/09/13 22:19:01;;;;;;;;;;;;;;;22.05;58.40;98996.91;1089551;39;20434;-78
2022/09/13 22:20:05;;;;;;;;;;;;;;;22.06;57.94;99004.81;1086531;54;19957;-80
2022/09/13 22:21:07;;;;;;;;;;;;;;;22.07;57.92;98994.78;1086740;46;19969;-78
2022/09/13 22:22:11;;;;;;;;;;;;;;;22.04;58.58;98987.94;1086731;54;19950;-80
2022/09/13 22:23:12;;;;;;;;;;;;;;;22.03;58.37;98988.16;1086573;54;19977;-79
2022/09/13 22:24:17;;;;;;;;;;;;;;;22.02;58.43;98981.91;1086771;54;19926;-79
2022/09/13 22:25:18;;;;;;;;;;;;;;;21.99;57.96;98981.56;1086621;54;19942;-78
2022/09/13 22:26:25;;;;;;;;;;;;;;;21.95;57.80;98981.25;1086735;54;19943;-80
2022/09/13 22:27:26;;;;;;;;;;;;;;;21.93;57.54;98977.94;1087314;54;19946;-80
2022/09/13 22:28:33;;;;;;;;;;;;;;;21.95;57.73;98976.63;1087298;54;19947;-81
2022/09/13 22:29:34;;;;;;;;;;;;;;;21.90;56.85;98979.25;1087381;54;19942;-80
2022/09/13 22:30:38;;;;;;;;;;;;;;;21.89;56.48;98977.59;1086745;54;19957;-78
2022/09/13 22:31:40;;;;;;;;;;;;;;;21.84;56.63;98969.34;1086954;39;20395;-77
2022/09/13 22:32:43;;;;;;;;;;;;;;;21.84;56.20;98963.09;1086562;54;19949;-79
2022/09/13 22:33:44;;;;;;;;;;;;;;;21.81;56.25;98965.22;1087192;39;20408;-77
2022/09/13 22:34:48;;;;;;;;;;;;;;;21.82;56.81;98966.06;1086752;54;20050;-79
2022/09/13 22:35:59;;;;;;;;;;;;;;;21.79;56.86;98961.09;1086511;54;19946;-79
2022/09/13 22:37:03;;;;;;;;;;;;;;;21.83;57.05;98967.69;1086635;54;19962;-79
2022/09/13 22:38:04;;;;;;;;;;;;;;;21.85;56.96;98962.03;1087417;39;20447;-77
2022/09/13 22:39:08;;;;;;;;;;;;;;;21.84;57.31;98957.66;1086428;54;19950;-78
2022/09/13 22:40:10;;;;;;;;;;;;;;;21.81;57.04;98958.97;1086618;54;19986;-78
2022/09/13 22:41:15;;;;;;;;;;;;;;;21.78;57.33;98954.00;1086441;54;19950;-79
2022/09/13 22:42:16;;;;;;;;;;;;;;;21.75;57.35;98944.44;1086980;54;20792;-79
2022/09/13 22:43:19;;;;;;;;;;;;;;;21.76;57.75;98946.09;1090935;39;20900;-78
2022/09/13 22:44:26;;;;;;;;;;;;;;;21.75;57.51;98944.44;1088915;39;20477;-77
2022/09/13 22:45:27;;;;;;;;;;;;;;;21.75;57.74;98943.59;1087382;54;19950;-79
2022/09/13 22:46:32;;;;;;;;;;;;;;;21.77;57.25;98946.91;1087442;54;19923;-77
2022/09/13 22:47:33;;;;;;;;;;;;;;;21.77;57.48;98947.72;1087378;46;19977;-78
2022/09/13 22:48:38;;;;;;;;;;;;;;;21.77;57.71;98941.47;1087289;54;19950;-78
2022/09/13 22:49:39;;;;;;;;;;;;;;;21.74;57.63;98936.53;1088178;47;20590;-79
2022/09/13 22:50:43;;;;;;;;;;;;;;;21.71;57.70;98931.59;1087415;54;20643;-79
2022/09/13 22:51:45;;;;;;;;;;;;;;;21.70;57.71;98941.63;1087489;54;19943;-78
2022/09/13 22:52:48;;;;;;;;;;;;;;;21.69;58.00;98936.44;1087637;54;19974;-77
2022/09/13 22:53:50;;;;;;;;;;;;;;;21.65;58.14;98934.19;1088801;47;19939;-76
2022/09/13 22:54:54;;;;;;;;;;;;;;;21.65;58.08;98939.66;1088943;47;19946;-77
2022/09/13 22:56:00;;;;;;;;;;;;;;;21.65;58.18;98934.19;1087309;54;19942;-77
2022/09/13 22:57:04;;;;;;;;;;;;;;;21.66;57.99;98935.84;1087561;54;19943;-77
2022/09/13 22:58:05;;;;;;;;;;;;;;;21.64;57.84;98931.75;1087316;54;19947;-78
2022/09/13 22:59:09;;;;;;;;;;;;;;;21.66;57.97;98924.97;1086838;54;19951;-78
2022/09/13 23:00:14;;;;;;;;;;;;;;;21.62;58.02;98912.13;1086704;54;20496;-78
2022/09/13 23:01:18;;;;;;;;;;;;;;;21.59;58.00;98918.03;1086654;54;19982;-78
2022/09/13 23:02:19;;;;;;;;;;;;;;;21.58;58.32;98921.81;1087637;39;20404;-78
2022/09/13 23:03:23;;;;;;;;;;;;;;;21.57;57.89;98918.25;1087343;54;19942;-77
2022/09/13 23:04:24;;;;;;;;;;;;;;;21.55;57.90;98914.94;1087492;54;19946;-79
2022/09/13 23:05:28;;;;;;;;;;;;;;;21.58;57.48;98914.50;1088160;47;19942;-79
2022/09/13 23:06:29;;;;;;;;;;;;;;;21.59;57.87;98923.47;1087393;39;20159;-80
2022/09/13 23:07:33;;;;;;;;;;;;;;;21.61;57.48;98918.63;1086813;54;20077;-79
2022/09/13 23:08:35;;;;;;;;;;;;;;;21.61;58.08;98919.47;1086439;54;19973;-79
2022/09/13 23:09:39;;;;;;;;;;;;;;;21.62;57.70;98931.16;1086541;54;20010;-78
2022/09/13 23:10:40;;;;;;;;;;;;;;;21.61;56.98;98921.34;1086646;54;19958;-81
2022/09/13 23:11:44;;;;;;;;;;;;;;;21.60;56.38;98915.09;1087105;54;19973;-79
2022/09/13 23:12:45;;;;;;;;;;;;;;;21.63;56.01;98920.03;1086313;54;19991;-78
2022/09/13 23:13:50;;;;;;;;;;;;;;;21.65;56.26;98923.31;1086368;54;19946;-79
2022/09/13 23:14:51;;;;;;;;;;;;;;;21.66;55.50;98924.97;1086182;54;20528;-78
2022/09/13 23:15:57;;;;;;;;;;;;;;;21.67;54.86;98923.09;1086402;54;19954;-79
2022/09/13 23:16:58;;;;;;;;;;;;;;;21.72;55.22;98925.09;1086403;54;19953;-77
2022/09/13 23:18:02;;;;;;;;;;;;;;;21.72;54.85;98915.03;1086170;54;19958;-77
2022/09/13 23:19:03;;;;;;;;;;;;;;;21.75;54.63;98919.97;1086506;54;19966;-78
2022/09/13 23:20:10;;;;;;;;;;;;;;;21.77;54.49;98925.16;1086167;54;19957;-78
2022/09/13 23:21:11;;;;;;;;;;;;;;;21.80;54.61;98916.53;1086218;54;19950;-76
2022/09/13 23:22:15;;;;;;;;;;;;;;;21.83;54.58;98918.72;1086277;54;19953;-78
2022/09/13 23:23:16;;;;;;;;;;;;;;;21.83;54.21;98918.72;1086247;54;19950;-78
2022/09/13 23:24:20;;;;;;;;;;;;;;;21.83;54.29;98918.72;1086532;54;19974;-78
2022/09/13 23:25:21;;;;;;;;;;;;;;;21.84;54.56;98917.66;1086594;54;19962;-78
2022/09/13 23:26:25;;;;;;;;;;;;;;;21.85;54.07;98921.22;1086294;54;20495;-78
2022/09/13 23:27:27;;;;;;;;;;;;;;;21.86;54.57;98914.72;1086475;54;19951;-78
2022/09/13 23:28:30;;;;;;;;;;;;;;;21.86;54.62;98923.69;1086597;54;20039;-79
2022/09/13 23:29:34;;;;;;;;;;;;;;;21.85;54.52;98915.78;1086573;54;20622;-78
2022/09/13 23:30:35;;;;;;;;;;;;;;;21.87;54.34;98913.66;1086523;54;19942;-78
2022/09/13 23:31:42;;;;;;;;;;;;;;;21.85;54.12;98916.59;1086172;54;20010;-81
2022/09/13 23:32:45;;;;;;;;;;;;;;;21.85;54.28;98916.59;1087199;39;20447;-78
2022/09/13 23:33:50;;;;;;;;;;;;;;;21.85;53.96;98908.44;1086530;54;19950;-79
2022/09/13 23:34:51;;;;;;;;;;;;;;;21.86;53.91;98907.38;1086135;54;19962;-79
2022/09/13 23:35:58;;;;;;;;;;;;;;;21.88;54.17;98907.94;1086322;54;19998;-79
2022/09/13 23:37:02;;;;;;;;;;;;;;;21.90;54.25;98900.38;1086195;54;19939;-77
2022/09/13 23:38:04;;;;;;;;;;;;;;;21.90;54.21;98908.53;1086065;54;20750;-78
2022/09/13 23:39:09;;;;;;;;;;;;;;;21.94;54.33;98908.84;1085959;54;20474;-77
2022/09/13 23:40:10;;;;;;;;;;;;;;;21.98;54.30;98910.00;1085999;54;19946;-78
2022/09/13 23:41:15;;;;;;;;;;;;;;;22.02;53.86;98907.59;1086099;54;19954;-78
2022/09/13 23:42:16;;;;;;;;;;;;;;;22.01;53.95;98904.06;1086092;54;20780;-78
2022/09/13 23:43:20;;;;;;;;;;;;;;;22.03;53.83;98906.53;1088684;39;20447;-78
2022/09/13 23:44:21;;;;;;;;;;;;;;;22.03;53.86;98912.81;1086024;54;19950;-78
2022/09/13 23:45:25;;;;;;;;;;;;;;;22.03;53.91;98910.09;1085848;54;19951;-77
2022/09/13 23:46:26;;;;;;;;;;;;;;;22.05;54.00;98913.41;1086294;39;20373;-78
2022/09/13 23:47:32;;;;;;;;;;;;;;;22.07;54.75;98910.41;1085923;54;19943;-76
2022/09/13 23:48:33;;;;;;;;;;;;;;;22.06;55.52;98915.00;1086034;54;19962;-76
2022/09/13 23:49:37;;;;;;;;;;;;;;;22.03;55.49;98920.97;1085930;54;19954;-76
2022/09/13 23:50:38;;;;;;;;;;;;;;;22.04;55.78;98913.63;1087681;31;20476;-78
2022/09/13 23:51:42;;;;;;;;;;;;;;;22.04;55.47;98916.34;1087375;39;19998;-78
2022/09/13 23:52:43;;;;;;;;;;;;;;;22.05;56.27;98909.84;1086080;54;19947;-78
2022/09/13 23:53:48;;;;;;;;;;;;;;;22.04;56.15;98908.19;1086148;54;19947;-77
2022/09/13 23:54:49;;;;;;;;;;;;;;;22.04;57.56;98913.63;1086036;54;20174;-78
2022/09/13 23:55:53;;;;;;;;;;;;;;;22.02;57.23;98916.59;1085874;54;20006;-76
2022/09/13 23:56:54;;;;;;;;;;;;;;;22.03;57.13;98911.97;1086075;54;19943;-78
2022/09/13 23:57:58;;;;;;;;;;;;;;;22.02;57.05;98913.03;1086333;54;19947;-78
2022/09/13 23:59:01;;;;;;;;;;;;;;;22.03;57.21;98912.81;1087059;31;20559;-77
